createdAt,value
2019-05-20T00:02:21.674Z,84.60
2019-05-20T00:04:37.337Z,84.49
2019-05-20T00:07:05.570Z,84.58
2019-05-20T00:09:33.787Z,84.52
2019-05-20T00:12:02.034Z,84.61
2019-05-20T00:14:30.273Z,84.44
2019-05-20T00:16:58.490Z,84.53
2019-05-20T00:19:26.729Z,84.56
2019-05-20T00:21:54.940Z,84.62
2019-05-20T00:24:23.172Z,84.97
2019-05-20T00:26:51.472Z,85.04
2019-05-20T00:29:19.837Z,84.93
2019-05-20T00:31:48.070Z,84.89
2019-05-20T00:34:16.280Z,84.86
2019-05-20T00:36:44.506Z,84.96
2019-05-20T00:39:14.403Z,84.84
2019-05-20T00:41:42.648Z,84.76
2019-05-20T00:44:10.965Z,84.72
2019-05-20T00:46:39.186Z,84.72
2019-05-20T00:49:07.430Z,84.75
2019-05-20T00:51:35.627Z,84.73
2019-05-20T00:54:03.933Z,84.65
2019-05-20T00:56:32.112Z,84.86
2019-05-20T00:59:00.490Z,84.63
2019-05-20T01:01:28.700Z,84.68
2019-05-20T01:03:56.919Z,84.74
2019-05-20T01:06:25.128Z,84.44
2019-05-20T01:08:53.361Z,84.44
2019-05-20T01:11:21.622Z,84.70
2019-05-20T01:13:49.863Z,84.78
2019-05-20T01:16:18.092Z,84.80
2019-05-20T01:18:46.331Z,84.76
2019-05-20T01:21:14.558Z,84.69
2019-05-20T01:23:42.778Z,84.57
2019-05-20T01:26:11.000Z,84.68
2019-05-20T01:28:39.221Z,84.59
2019-05-20T01:31:07.445Z,84.70
2019-05-20T01:33:35.695Z,84.67
2019-05-20T01:36:03.987Z,84.70
2019-05-20T01:38:32.205Z,84.85
2019-05-20T01:41:00.461Z,84.86
2019-05-20T01:43:28.682Z,84.79
2019-05-20T01:45:56.892Z,84.76
2019-05-20T01:48:25.128Z,84.73
2019-05-20T01:50:53.439Z,84.75
2019-05-20T01:53:21.642Z,84.62
2019-05-20T01:55:49.891Z,84.65
2019-05-20T01:58:18.112Z,84.67
2019-05-20T02:00:46.337Z,84.72
2019-05-20T02:03:30.233Z,84.73
2019-05-20T02:05:44.501Z,84.66
2019-05-20T02:08:12.719Z,84.68
2019-05-20T02:10:40.976Z,84.77
2019-05-20T02:13:09.195Z,84.75
2019-05-20T02:15:39.050Z,84.59
2019-05-20T02:18:07.277Z,84.66
2019-05-20T02:20:35.521Z,84.68
2019-05-20T02:23:15.935Z,84.79
2019-05-20T02:25:46.854Z,84.85
2019-05-20T02:28:15.311Z,84.85
2019-05-20T02:30:43.570Z,84.84
2019-05-20T02:33:11.809Z,84.83
2019-05-20T02:35:40.038Z,84.83
2019-05-20T02:38:08.282Z,84.65
2019-05-20T02:40:36.500Z,84.62
2019-05-20T02:43:04.737Z,84.58
2019-05-20T02:45:32.966Z,84.55
2019-05-20T02:48:01.198Z,84.54
2019-05-20T02:50:29.417Z,84.57
2019-05-20T02:52:57.754Z,84.65
2019-05-20T02:55:25.961Z,84.70
2019-05-20T02:57:54.291Z,84.82
2019-05-20T03:00:22.512Z,84.80
2019-05-20T03:02:50.746Z,84.78
2019-05-20T03:05:19.869Z,84.79
2019-05-20T03:07:48.081Z,84.83
2019-05-20T03:10:16.300Z,84.98
2019-05-20T03:12:44.509Z,85.01
2019-05-20T03:15:12.744Z,85.01
2019-05-20T03:17:40.982Z,85.03
2019-05-20T03:20:09.214Z,85.05
2019-05-20T03:22:37.436Z,85.02
2019-05-20T03:25:06.988Z,85.01
2019-05-20T03:27:35.197Z,85.04
2019-05-20T03:30:03.783Z,85.02
2019-05-20T03:32:32.029Z,85.10
2019-05-20T03:35:01.322Z,85.12
2019-05-20T03:37:29.795Z,85.27
2019-05-20T03:39:58.009Z,85.33
2019-05-20T03:42:26.229Z,85.38
2019-05-20T03:44:54.445Z,85.31
2019-05-20T03:47:22.687Z,85.38
2019-05-20T03:49:50.897Z,85.41
2019-05-20T03:52:19.130Z,85.40
2019-05-20T03:54:47.336Z,85.36
2019-05-20T03:57:15.566Z,85.26
2019-05-20T03:59:43.805Z,85.27
2019-05-20T04:02:12.046Z,85.23
2019-05-20T04:04:40.253Z,85.08
2019-05-20T04:07:08.463Z,85.09
2019-05-20T04:09:36.735Z,85.27
2019-05-20T04:12:04.966Z,85.21
2019-05-20T04:14:33.215Z,85.38
2019-05-20T04:17:01.430Z,85.40
2019-05-20T04:19:29.674Z,85.36
2019-05-20T04:21:57.877Z,85.83
2019-05-20T04:24:26.079Z,85.83
2019-05-20T04:26:57.579Z,85.46
2019-05-20T04:29:25.782Z,85.38
2019-05-20T04:31:54.001Z,85.48
2019-05-20T04:34:22.223Z,85.44
2019-05-20T04:36:50.463Z,85.45
2019-05-20T04:39:18.712Z,85.40
2019-05-20T04:41:46.944Z,85.29
2019-05-20T04:44:15.154Z,85.24
2019-05-20T04:46:43.402Z,85.15
2019-05-20T04:49:11.615Z,85.07
2019-05-20T04:51:39.848Z,85.12
2019-05-20T04:54:08.085Z,85.05
2019-05-20T04:56:36.297Z,85.04
2019-05-20T04:59:04.520Z,84.96
2019-05-20T05:01:32.741Z,84.94
2019-05-20T05:04:00.980Z,84.83
2019-05-20T05:06:29.219Z,84.72
2019-05-20T05:08:57.457Z,84.60
2019-05-20T05:11:25.702Z,84.36
2019-05-20T05:13:53.986Z,84.19
2019-05-20T05:16:22.535Z,83.87
2019-05-20T05:18:50.779Z,83.53
2019-05-20T05:21:19.006Z,83.51
2019-05-20T05:23:58.699Z,83.23
2019-05-20T05:26:17.223Z,82.89
2019-05-20T05:28:45.449Z,82.62
2019-05-20T05:31:13.662Z,82.45
2019-05-20T05:33:41.919Z,82.29
2019-05-20T05:36:10.114Z,82.10
2019-05-20T05:38:38.356Z,82.04
2019-05-20T05:41:06.593Z,81.93
2019-05-20T05:43:34.853Z,81.98
2019-05-20T05:46:03.093Z,81.94
2019-05-20T05:48:31.319Z,81.73
2019-05-20T05:51:01.175Z,81.54
2019-05-20T05:53:29.392Z,81.12
2019-05-20T05:55:57.623Z,81.06
2019-05-20T05:58:25.916Z,80.94
2019-05-20T06:00:54.139Z,80.99
2019-05-20T06:03:22.346Z,81.14
2019-05-20T06:05:50.931Z,81.08
2019-05-20T06:08:19.938Z,81.05
2019-05-20T06:10:48.160Z,81.00
2019-05-20T06:13:16.392Z,81.05
2019-05-20T06:15:44.603Z,80.99
2019-05-20T06:18:12.858Z,80.90
2019-05-20T06:20:41.164Z,80.68
2019-05-20T06:23:09.472Z,80.61
2019-05-20T06:25:37.701Z,80.47
2019-05-20T06:28:05.915Z,80.25
2019-05-20T06:30:39.485Z,80.04
2019-05-20T06:33:07.736Z,79.77
2019-05-20T06:35:36.110Z,79.88
2019-05-20T06:38:06.158Z,79.95
2019-05-20T06:40:34.378Z,80.01
2019-05-20T06:43:02.598Z,79.81
2019-05-20T06:45:30.819Z,79.81
2019-05-20T06:47:59.096Z,79.68
2019-05-20T06:50:29.587Z,79.75
2019-05-20T06:52:57.260Z,79.82
2019-05-20T06:55:25.498Z,79.89
2019-05-20T06:57:53.751Z,79.84
2019-05-20T07:00:36.395Z,79.55
2019-05-20T07:03:04.962Z,79.27
2019-05-20T07:05:33.216Z,78.95
2019-05-20T07:08:01.634Z,78.56
2019-05-20T07:10:29.932Z,78.31
2019-05-20T07:12:58.182Z,77.96
2019-05-20T07:15:26.412Z,77.30
2019-05-20T07:17:54.645Z,76.70
2019-05-20T07:20:22.874Z,76.01
2019-05-20T07:22:55.601Z,75.05
2019-05-20T07:25:21.182Z,74.17
2019-05-20T07:27:49.387Z,73.00
2019-05-20T07:30:17.611Z,71.78
2019-05-20T07:32:45.873Z,70.72
2019-05-20T07:35:28.718Z,70.30
2019-05-20T07:37:44.054Z,69.99
2019-05-20T07:40:12.443Z,69.16
2019-05-20T07:42:40.657Z,69.19
2019-05-20T07:45:08.965Z,69.10
2019-05-20T07:47:37.178Z,68.30
2019-05-20T07:50:06.570Z,67.84
2019-05-20T07:52:34.778Z,68.52
2019-05-20T07:55:03.030Z,68.75
2019-05-20T07:57:33.788Z,68.41
2019-05-20T08:00:02.018Z,68.16
2019-05-20T08:02:30.227Z,67.03
2019-05-20T08:04:58.450Z,66.27
2019-05-20T08:07:30.128Z,65.50
2019-05-20T08:09:56.637Z,65.41
2019-05-20T08:12:24.872Z,64.87
2019-05-20T08:14:53.115Z,64.50
2019-05-20T08:17:21.321Z,63.40
2019-05-20T08:19:49.539Z,62.78
2019-05-20T08:22:17.797Z,62.40
2019-05-20T08:24:46.012Z,62.34
2019-05-20T08:27:14.243Z,61.71
2019-05-20T08:29:42.541Z,61.58
2019-05-20T08:32:10.754Z,61.54
2019-05-20T08:34:40.154Z,61.21
2019-05-20T08:37:08.681Z,61.16
2019-05-20T08:39:36.927Z,61.04
2019-05-20T08:42:05.155Z,61.03
2019-05-20T08:44:33.459Z,60.93
2019-05-20T08:47:01.946Z,60.99
2019-05-20T08:49:30.203Z,60.68
2019-05-20T08:51:58.757Z,60.79
2019-05-20T08:54:26.929Z,60.92
2019-05-20T08:56:55.198Z,61.06
2019-05-20T08:59:23.451Z,60.64
2019-05-20T09:01:51.655Z,60.12
2019-05-20T09:04:19.935Z,60.32
2019-05-20T09:06:48.158Z,60.40
2019-05-20T09:09:16.383Z,60.33
2019-05-20T09:11:47.706Z,59.75
2019-05-20T09:14:14.626Z,59.86
2019-05-20T09:16:42.965Z,60.08
2019-05-20T09:19:11.238Z,59.81
2019-05-20T09:21:39.451Z,59.98
2019-05-20T09:24:07.724Z,60.07
2019-05-20T09:26:35.991Z,59.72
2019-05-20T09:29:04.193Z,59.82
2019-05-20T09:31:32.411Z,59.72
2019-05-20T09:34:00.630Z,59.27
2019-05-20T09:36:28.883Z,59.28
2019-05-20T09:38:57.100Z,59.49
2019-05-20T09:41:25.321Z,59.32
2019-05-20T09:43:53.630Z,59.41
2019-05-20T09:46:21.886Z,59.66
2019-05-20T09:48:50.126Z,59.76
2019-05-20T09:51:18.429Z,59.68
2019-05-20T09:53:46.726Z,59.49
2019-05-20T09:56:14.961Z,58.79
2019-05-20T09:58:43.166Z,58.68
2019-05-20T10:01:11.394Z,58.61
2019-05-20T10:03:39.642Z,58.53
2019-05-20T10:06:07.917Z,58.57
2019-05-20T10:08:43.256Z,58.53
2019-05-20T10:11:06.106Z,58.75
2019-05-20T10:13:34.314Z,58.44
2019-05-20T10:16:02.559Z,58.53
2019-05-20T10:18:37.310Z,58.31
2019-05-20T10:21:00.748Z,57.77
2019-05-20T10:23:28.962Z,58.25
2019-05-20T10:25:57.206Z,58.41
2019-05-20T10:28:25.424Z,58.56
2019-05-20T10:30:53.638Z,58.54
2019-05-20T10:33:21.899Z,58.49
2019-05-20T10:35:50.114Z,58.32
2019-05-20T10:38:18.319Z,58.37
2019-05-20T10:40:46.534Z,58.52
2019-05-20T10:43:14.753Z,58.69
2019-05-20T10:45:43.006Z,58.39
2019-05-20T10:48:11.221Z,58.22
2019-05-20T10:50:39.479Z,58.58
2019-05-20T10:53:07.703Z,58.61
2019-05-20T10:55:35.931Z,58.17
2019-05-20T10:58:04.360Z,57.78
2019-05-20T11:00:32.524Z,57.75
2019-05-20T11:03:00.750Z,57.86
2019-05-20T11:05:28.981Z,57.70
2019-05-20T11:07:57.408Z,57.23
2019-05-20T11:10:25.712Z,56.96
2019-05-20T11:12:54.681Z,57.13
2019-05-20T11:15:22.919Z,56.98
2019-05-20T11:17:51.146Z,56.79
2019-05-20T11:20:20.145Z,57.20
2019-05-20T11:22:48.383Z,57.89
2019-05-20T11:25:16.776Z,58.47
2019-05-20T11:27:45.001Z,59.04
2019-05-20T11:30:13.222Z,59.26
2019-05-20T11:32:41.446Z,59.46
2019-05-20T11:35:09.678Z,59.65
2019-05-20T11:37:37.884Z,59.55
2019-05-20T11:40:10.114Z,59.63
2019-05-20T11:42:38.912Z,59.75
2019-05-20T11:45:10.097Z,59.57
2019-05-20T11:47:38.330Z,59.80
2019-05-20T11:50:09.465Z,59.94
2019-05-20T11:52:37.816Z,59.68
2019-05-20T11:55:08.228Z,59.36
2019-05-20T11:57:36.437Z,59.59
2019-05-20T12:00:12.118Z,59.47
2019-05-20T12:02:40.352Z,59.09
2019-05-20T12:05:08.596Z,59.03
2019-05-20T12:07:36.796Z,58.72
2019-05-20T12:10:06.170Z,58.48
2019-05-20T12:12:34.383Z,58.35
2019-05-20T12:15:03.970Z,58.60
2019-05-20T12:17:32.838Z,58.70
2019-05-20T12:20:01.066Z,58.66
2019-05-20T12:22:29.275Z,58.06
2019-05-20T12:24:57.513Z,57.99
2019-05-20T12:27:25.804Z,58.03
2019-05-20T12:29:53.989Z,58.29
2019-05-20T12:32:22.300Z,58.35
2019-05-20T12:34:50.504Z,58.43
2019-05-20T12:37:18.802Z,58.27
2019-05-20T12:39:47.053Z,58.30
2019-05-20T12:42:15.387Z,58.15
2019-05-20T12:44:43.621Z,58.17
2019-05-20T12:47:11.839Z,58.01
2019-05-20T12:49:40.064Z,57.67
2019-05-20T12:52:08.378Z,57.66
2019-05-20T12:54:36.601Z,57.65
2019-05-20T12:57:04.907Z,57.66
2019-05-20T12:59:33.117Z,57.75
2019-05-20T13:02:01.331Z,57.77
2019-05-20T13:04:29.558Z,57.74
2019-05-20T13:06:57.794Z,57.98
2019-05-20T13:09:26.016Z,57.92
2019-05-20T13:11:54.235Z,57.89
2019-05-20T13:14:22.446Z,57.88
2019-05-20T13:16:50.698Z,58.04
2019-05-20T13:19:18.917Z,58.04
2019-05-20T13:21:47.154Z,58.19
2019-05-20T13:24:15.384Z,58.36
2019-05-20T13:26:43.627Z,58.54
2019-05-20T13:29:11.820Z,58.74
2019-05-20T13:31:40.070Z,58.84
2019-05-20T13:34:08.285Z,58.86
2019-05-20T13:36:36.502Z,58.70
2019-05-20T13:39:06.412Z,58.73
2019-05-20T13:41:34.645Z,58.95
2019-05-20T13:44:02.865Z,59.00
2019-05-20T13:46:31.081Z,59.04
2019-05-20T13:48:59.305Z,59.12
2019-05-20T13:51:27.553Z,59.17
2019-05-20T13:53:55.762Z,59.15
2019-05-20T13:56:23.986Z,59.19
2019-05-20T13:58:52.208Z,59.33
2019-05-20T14:01:20.472Z,59.28
2019-05-20T14:03:48.692Z,59.08
2019-05-20T14:06:16.892Z,58.81
2019-05-20T14:08:45.151Z,58.58
2019-05-20T14:11:13.682Z,58.75
2019-05-20T14:13:57.305Z,58.77
2019-05-20T14:16:25.547Z,58.57
2019-05-20T14:18:54.170Z,58.43
2019-05-20T14:21:22.395Z,58.55
2019-05-20T14:23:50.940Z,58.34
2019-05-20T14:26:19.999Z,58.02
2019-05-20T14:28:48.680Z,57.92
2019-05-20T14:31:17.352Z,57.71
2019-05-20T14:33:45.650Z,57.54
2019-05-20T14:36:36.074Z,57.27
2019-05-20T14:38:43.855Z,56.95
2019-05-20T14:41:20.991Z,56.47
2019-05-20T14:43:42.037Z,56.31
2019-05-20T14:46:10.248Z,56.40
2019-05-20T14:48:38.480Z,56.60
2019-05-20T14:51:06.694Z,56.86
2019-05-20T14:53:34.912Z,56.78
2019-05-20T14:56:03.111Z,56.59
2019-05-20T14:58:31.336Z,56.64
2019-05-20T15:01:01.274Z,56.24
2019-05-20T15:03:29.466Z,56.83
2019-05-20T15:05:57.675Z,56.91
2019-05-20T15:08:25.896Z,56.63
2019-05-20T15:10:54.155Z,56.33
2019-05-20T15:13:22.363Z,55.94
2019-05-20T15:15:50.805Z,55.88
2019-05-20T15:18:19.033Z,55.64
2019-05-20T15:20:47.253Z,55.58
2019-05-20T15:23:15.469Z,56.11
2019-05-20T15:25:43.720Z,56.55
2019-05-20T15:28:12.298Z,56.91
2019-05-20T15:30:40.537Z,57.20
2019-05-20T15:33:08.790Z,57.26
2019-05-20T15:35:37.009Z,57.21
2019-05-20T15:38:05.222Z,57.00
2019-05-20T15:40:33.440Z,57.00
2019-05-20T15:43:01.874Z,56.78
2019-05-20T15:45:30.067Z,56.80
2019-05-20T15:47:58.289Z,56.81
2019-05-20T15:50:26.591Z,56.85
2019-05-20T15:52:55.339Z,57.10
2019-05-20T15:55:23.924Z,57.27
2019-05-20T15:57:52.141Z,57.55
2019-05-20T16:00:20.386Z,57.35
2019-05-20T16:02:48.955Z,57.53
2019-05-20T16:05:17.190Z,57.79
2019-05-20T16:07:45.409Z,57.81
2019-05-20T16:10:13.651Z,57.66
2019-05-20T16:12:42.481Z,57.47
2019-05-20T16:15:10.692Z,57.73
2019-05-20T16:17:38.916Z,58.14
2019-05-20T16:20:08.183Z,58.16
2019-05-20T16:22:36.433Z,57.86
2019-05-20T16:25:06.077Z,57.96
2019-05-20T16:27:34.368Z,58.34
2019-05-20T16:30:06.804Z,58.39
2019-05-20T16:32:32.741Z,58.46
2019-05-20T16:35:01.019Z,58.37
2019-05-20T16:37:29.249Z,58.11
2019-05-20T16:39:57.547Z,58.13
2019-05-20T16:42:25.775Z,58.15
2019-05-20T16:44:54.424Z,58.21
2019-05-20T16:47:22.644Z,58.46
2019-05-20T16:49:50.883Z,58.74
2019-05-20T16:52:19.113Z,58.69
2019-05-20T16:54:47.348Z,58.66
2019-05-20T16:57:15.564Z,58.58
2019-05-20T16:59:43.855Z,58.69
2019-05-20T17:02:12.156Z,58.74
2019-05-20T17:04:40.390Z,58.85
2019-05-20T17:07:08.620Z,59.06
2019-05-20T17:09:36.893Z,59.04
2019-05-20T17:12:05.070Z,59.08
2019-05-20T17:14:33.290Z,59.06
2019-05-20T17:19:28.774Z,59.55
2019-05-20T17:21:57.103Z,59.80
2019-05-20T17:24:25.406Z,59.88
2019-05-20T17:26:53.631Z,60.02
2019-05-20T17:29:21.869Z,60.10
2019-05-20T17:31:50.079Z,60.43
2019-05-20T17:34:18.387Z,60.66
2019-05-20T17:36:46.593Z,60.95
2019-05-20T17:39:14.944Z,61.05
2019-05-20T17:41:43.230Z,61.16
2019-05-20T17:44:11.459Z,61.12
2019-05-20T17:46:39.656Z,61.15
2019-05-20T17:49:07.884Z,61.22
2019-05-20T17:51:36.123Z,61.33
2019-05-20T17:54:04.373Z,61.28
2019-05-20T17:56:32.594Z,61.16
2019-05-20T17:59:00.843Z,61.04
2019-05-20T18:01:29.069Z,61.17
2019-05-20T18:03:57.275Z,61.24
2019-05-20T18:06:25.507Z,61.34
2019-05-20T18:08:55.358Z,61.36
2019-05-20T18:11:23.584Z,61.52
2019-05-20T18:13:51.924Z,61.75
2019-05-20T18:16:20.164Z,62.12
2019-05-20T18:18:48.383Z,62.35
2019-05-20T18:21:16.630Z,62.54
2019-05-20T18:23:44.829Z,62.71
2019-05-20T18:26:13.042Z,62.82
2019-05-20T18:28:41.262Z,62.93
2019-05-20T18:31:09.477Z,63.10
2019-05-20T18:33:37.866Z,63.48
2019-05-20T18:36:06.198Z,63.75
2019-05-20T18:38:34.417Z,63.95
2019-05-20T18:41:04.276Z,64.31
2019-05-20T18:43:32.498Z,64.55
2019-05-20T18:46:01.059Z,64.81
2019-05-20T18:48:29.343Z,64.86
2019-05-20T18:50:57.572Z,64.96
2019-05-20T18:53:28.792Z,65.04
2019-05-20T18:55:57.008Z,65.13
2019-05-20T18:58:25.251Z,65.17
2019-05-20T19:00:53.467Z,65.36
2019-05-20T19:03:21.994Z,65.40
2019-05-20T19:05:50.512Z,65.48
2019-05-20T19:08:18.752Z,65.68
2019-05-20T19:10:47.011Z,65.84
2019-05-20T19:13:15.276Z,66.10
2019-05-20T19:15:43.578Z,66.25
2019-05-20T19:18:11.865Z,66.51
2019-05-20T19:20:40.086Z,66.53
2019-05-20T19:23:08.712Z,66.82
2019-05-20T19:25:38.135Z,66.88
2019-05-20T19:28:06.534Z,66.99
2019-05-20T19:30:34.770Z,67.21
2019-05-20T19:33:03.012Z,67.41
2019-05-20T19:35:31.231Z,67.61
2019-05-20T19:37:59.453Z,67.67
2019-05-20T19:40:27.681Z,67.85
2019-05-20T19:42:55.907Z,68.09
2019-05-20T19:45:24.215Z,68.18
2019-05-20T19:47:52.446Z,68.27
2019-05-20T19:50:20.690Z,68.40
2019-05-20T19:52:48.971Z,68.55
2019-05-20T19:55:19.061Z,68.52
2019-05-20T19:57:47.128Z,68.54
2019-05-20T20:00:15.369Z,68.64
2019-05-20T20:02:43.689Z,68.89
2019-05-20T20:05:12.144Z,68.82
2019-05-20T20:07:40.302Z,68.87
2019-05-20T20:10:08.537Z,69.01
2019-05-20T20:12:36.757Z,68.92
2019-05-20T20:15:06.184Z,68.88
2019-05-20T20:17:34.399Z,68.79
2019-05-20T20:20:02.793Z,68.60
2019-05-20T20:22:31.034Z,68.36
2019-05-20T20:24:59.246Z,68.10
2019-05-20T20:27:27.480Z,67.78
2019-05-20T20:29:55.687Z,67.56
2019-05-20T20:32:37.465Z,67.54
2019-05-20T20:34:53.880Z,67.51
2019-05-20T20:37:22.084Z,67.57
2019-05-20T20:39:50.312Z,67.64
2019-05-20T20:42:18.543Z,67.72
2019-05-20T20:44:46.841Z,67.73
2019-05-20T20:47:15.095Z,67.76
2019-05-20T20:49:43.341Z,67.77
2019-05-20T20:52:11.563Z,67.77
2019-05-20T20:54:39.780Z,67.81
2019-05-20T20:57:08.023Z,67.86
2019-05-20T20:59:36.236Z,67.87
2019-05-20T21:02:04.541Z,67.91
2019-05-20T21:04:32.840Z,67.89
2019-05-20T21:07:01.091Z,67.75
2019-05-20T21:09:29.359Z,67.64
2019-05-20T21:11:57.550Z,67.58
2019-05-20T21:14:25.794Z,67.42
2019-05-20T21:16:54.013Z,67.39
2019-05-20T21:19:22.262Z,67.24
2019-05-20T21:21:50.755Z,67.09
2019-05-20T21:24:18.965Z,66.99
2019-05-20T21:26:47.183Z,66.94
2019-05-20T21:29:15.410Z,66.93
2019-05-20T21:31:43.620Z,66.97
2019-05-20T21:34:11.870Z,67.03
2019-05-20T21:36:47.725Z,67.10
2019-05-20T21:39:10.038Z,67.17
2019-05-20T21:41:38.299Z,67.29
2019-05-20T21:44:06.485Z,67.41
2019-05-20T21:46:34.728Z,67.51
2019-05-20T21:49:02.943Z,67.55
2019-05-20T21:51:31.151Z,67.65
2019-05-20T21:53:59.370Z,67.67
2019-05-20T21:56:27.581Z,67.66
2019-05-20T21:58:55.801Z,67.70
2019-05-20T22:01:24.010Z,67.76
2019-05-20T22:03:52.244Z,67.83
2019-05-20T22:06:20.497Z,67.91
2019-05-20T22:08:48.733Z,67.92
2019-05-20T22:11:16.930Z,68.02
2019-05-20T22:13:45.165Z,68.11
2019-05-20T22:16:13.374Z,68.11
2019-05-20T22:18:41.584Z,68.19
2019-05-20T22:21:11.507Z,68.19
2019-05-20T22:23:44.430Z,68.19
2019-05-20T22:26:12.631Z,68.28
2019-05-20T22:28:40.867Z,68.35
2019-05-20T22:31:09.066Z,68.50
2019-05-20T22:33:41.832Z,68.58
2019-05-20T22:36:07.286Z,68.68
2019-05-20T22:38:35.493Z,68.69
2019-05-20T22:41:03.726Z,68.69
2019-05-20T22:43:32.013Z,68.73
2019-05-20T22:46:00.228Z,68.90
2019-05-20T22:48:28.485Z,68.90
2019-05-20T22:50:56.702Z,68.94
2019-05-20T22:53:24.906Z,68.90
2019-05-20T22:55:53.131Z,68.76
2019-05-20T22:58:21.344Z,68.73
2019-05-20T23:00:49.571Z,68.70
2019-05-20T23:03:17.779Z,68.86
2019-05-20T23:05:46.007Z,69.23
2019-05-20T23:08:14.211Z,69.66
2019-05-20T23:10:42.414Z,70.13
2019-05-20T23:13:10.673Z,70.54
2019-05-20T23:15:38.999Z,71.08
2019-05-20T23:18:07.193Z,71.75
2019-05-20T23:20:35.455Z,71.58
2019-05-20T23:23:03.631Z,72.07
2019-05-20T23:25:32.167Z,71.92
2019-05-20T23:28:00.396Z,72.13
2019-05-20T23:30:28.635Z,72.40
2019-05-20T23:32:56.858Z,72.48
2019-05-20T23:35:25.103Z,72.57
2019-05-20T23:37:53.314Z,72.66
2019-05-20T23:40:21.543Z,72.81
2019-05-20T23:42:49.762Z,72.69
2019-05-20T23:45:17.989Z,72.70
2019-05-20T23:47:46.219Z,72.76
2019-05-20T23:50:14.443Z,72.69
2019-05-20T23:52:42.640Z,72.65
2019-05-20T23:55:10.862Z,72.44
2019-05-20T23:57:39.165Z,72.31
